sensor_id;sensor_type;location;lat;lon;timestamp;P1;durP1;ratioP1;P2;durP2;ratioP2
39970;SDS011;35425;51.142;17.178;2022-07-23T00:01:21;2.70;;;2.50;;
39970;SDS011;35425;51.142;17.178;2022-07-23T00:03:53;2.30;;;2.20;;
39970;SDS011;35425;51.142;17.178;2022-07-23T00:06:21;2.58;;;2.45;;
39970;SDS011;35425;51.142;17.178;2022-07-23T00:08:48;2.28;;;2.13;;
39970;SDS011;35425;51.142;17.178;2022-07-23T00:11:14;2.20;;;2.10;;
39970;SDS011;35425;51.142;17.178;2022-07-23T00:13:41;2.35;;;2.25;;
39970;SDS011;35425;51.142;17.178;2022-07-23T00:16:07;2.53;;;2.42;;
39970;SDS011;35425;51.142;17.178;2022-07-23T00:18:34;2.10;;;2.00;;
39970;SDS011;35425;51.142;17.178;2022-07-23T00:21:00;2.28;;;2.17;;
39970;SDS011;35425;51.142;17.178;2022-07-23T00:23:27;2.60;;;2.40;;
39970;SDS011;35425;51.142;17.178;2022-07-23T00:25:55;2.50;;;2.30;;
39970;SDS011;35425;51.142;17.178;2022-07-23T00:28:21;2.28;;;2.17;;
39970;SDS011;35425;51.142;17.178;2022-07-23T00:30:48;2.40;;;2.30;;
39970;SDS011;35425;51.142;17.178;2022-07-23T00:33:14;1.95;;;1.80;;
39970;SDS011;35425;51.142;17.178;2022-07-23T00:35:41;2.00;;;1.90;;
39970;SDS011;35425;51.142;17.178;2022-07-23T00:38:08;2.20;;;2.10;;
39970;SDS011;35425;51.142;17.178;2022-07-23T00:40:36;1.95;;;1.85;;
39970;SDS011;35425;51.142;17.178;2022-07-23T00:43:02;2.15;;;2.05;;
39970;SDS011;35425;51.142;17.178;2022-07-23T00:45:29;2.20;;;2.10;;
39970;SDS011;35425;51.142;17.178;2022-07-23T00:47:56;2.33;;;2.13;;
39970;SDS011;35425;51.142;17.178;2022-07-23T00:50:22;2.28;;;2.17;;
39970;SDS011;35425;51.142;17.178;2022-07-23T00:52:49;2.10;;;2.00;;
39970;SDS011;35425;51.142;17.178;2022-07-23T00:55:16;2.10;;;2.00;;
39970;SDS011;35425;51.142;17.178;2022-07-23T00:57:42;2.28;;;2.10;;
39970;SDS011;35425;51.142;17.178;2022-07-23T01:00:10;2.20;;;2.10;;
39970;SDS011;35425;51.142;17.178;2022-07-23T01:02:37;1.98;;;1.88;;
39970;SDS011;35425;51.142;17.178;2022-07-23T01:05:04;2.03;;;1.92;;
39970;SDS011;35425;51.142;17.178;2022-07-23T01:07:31;2.05;;;1.95;;
39970;SDS011;35425;51.142;17.178;2022-07-23T01:09:57;1.92;;;1.83;;
39970;SDS011;35425;51.142;17.178;2022-07-23T01:12:25;2.30;;;2.15;;
39970;SDS011;35425;51.142;17.178;2022-07-23T01:14:56;2.10;;;2.00;;
39970;SDS011;35425;51.142;17.178;2022-07-23T01:17:23;2.30;;;2.20;;
39970;SDS011;35425;51.142;17.178;2022-07-23T01:19:49;1.83;;;1.73;;
39970;SDS011;35425;51.142;17.178;2022-07-23T01:22:18;1.95;;;1.85;;
39970;SDS011;35425;51.142;17.178;2022-07-23T01:24:44;2.10;;;2.00;;
39970;SDS011;35425;51.142;17.178;2022-07-23T01:27:11;1.75;;;1.65;;
39970;SDS011;35425;51.142;17.178;2022-07-23T01:29:39;1.95;;;1.85;;
39970;SDS011;35425;51.142;17.178;2022-07-23T01:32:06;1.92;;;1.83;;
39970;SDS011;35425;51.142;17.178;2022-07-23T01:34:33;1.88;;;1.77;;
39970;SDS011;35425;51.142;17.178;2022-07-23T01:36:59;1.92;;;1.83;;
39970;SDS011;35425;51.142;17.178;2022-07-23T01:39:26;2.00;;;1.90;;
39970;SDS011;35425;51.142;17.178;2022-07-23T01:41:53;1.80;;;1.70;;
39970;SDS011;35425;51.142;17.178;2022-07-23T01:44:19;1.80;;;1.70;;
39970;SDS011;35425;51.142;17.178;2022-07-23T01:46:46;1.85;;;1.75;;
39970;SDS011;35425;51.142;17.178;2022-07-23T01:49:12;1.90;;;1.80;;
39970;SDS011;35425;51.142;17.178;2022-07-23T01:51:39;3.05;;;2.05;;
39970;SDS011;35425;51.142;17.178;2022-07-23T01:54:26;2.00;;;1.90;;
39970;SDS011;35425;51.142;17.178;2022-07-23T01:56:52;2.15;;;1.92;;
39970;SDS011;35425;51.142;17.178;2022-07-23T01:59:19;1.90;;;1.80;;
39970;SDS011;35425;51.142;17.178;2022-07-23T02:01:45;2.00;;;1.77;;
39970;SDS011;35425;51.142;17.178;2022-07-23T02:04:12;2.50;;;2.30;;
39970;SDS011;35425;51.142;17.178;2022-07-23T02:06:38;1.88;;;1.77;;
39970;SDS011;35425;51.142;17.178;2022-07-23T02:09:05;2.00;;;1.90;;
39970;SDS011;35425;51.142;17.178;2022-07-23T02:11:31;2.30;;;2.20;;
39970;SDS011;35425;51.142;17.178;2022-07-23T02:13:58;1.92;;;1.83;;
39970;SDS011;35425;51.142;17.178;2022-07-23T02:16:24;2.17;;;2.00;;
39970;SDS011;35425;51.142;17.178;2022-07-23T02:18:51;2.20;;;2.00;;
39970;SDS011;35425;51.142;17.178;2022-07-23T02:21:17;2.20;;;2.10;;
39970;SDS011;35425;51.142;17.178;2022-07-23T02:23:44;2.13;;;1.95;;
39970;SDS011;35425;51.142;17.178;2022-07-23T02:26:10;2.42;;;2.22;;
39970;SDS011;35425;51.142;17.178;2022-07-23T02:31:08;2.20;;;2.10;;
39970;SDS011;35425;51.142;17.178;2022-07-23T02:33:35;2.10;;;2.00;;
39970;SDS011;35425;51.142;17.178;2022-07-23T02:36:01;2.00;;;1.90;;
39970;SDS011;35425;51.142;17.178;2022-07-23T02:38:28;2.30;;;2.20;;
39970;SDS011;35425;51.142;17.178;2022-07-23T02:40:54;2.70;;;2.50;;
39970;SDS011;35425;51.142;17.178;2022-07-23T02:43:20;2.20;;;2.10;;
39970;SDS011;35425;51.142;17.178;2022-07-23T02:45:47;2.25;;;2.03;;
39970;SDS011;35425;51.142;17.178;2022-07-23T02:48:14;2.30;;;2.20;;
39970;SDS011;35425;51.142;17.178;2022-07-23T02:50:41;2.25;;;2.15;;
39970;SDS011;35425;51.142;17.178;2022-07-23T02:53:07;2.08;;;1.98;;
39970;SDS011;35425;51.142;17.178;2022-07-23T02:55:36;2.03;;;1.92;;
39970;SDS011;35425;51.142;17.178;2022-07-23T02:58:03;2.55;;;2.35;;
39970;SDS011;35425;51.142;17.178;2022-07-23T03:00:29;2.20;;;2.05;;
39970;SDS011;35425;51.142;17.178;2022-07-23T03:02:56;2.97;;;2.22;;
39970;SDS011;35425;51.142;17.178;2022-07-23T03:05:22;2.70;;;2.50;;
39970;SDS011;35425;51.142;17.178;2022-07-23T03:07:49;2.53;;;2.33;;
39970;SDS011;35425;51.142;17.178;2022-07-23T03:10:15;2.33;;;2.22;;
39970;SDS011;35425;51.142;17.178;2022-07-23T03:12:42;2.30;;;2.20;;
39970;SDS011;35425;51.142;17.178;2022-07-23T03:15:11;2.35;;;2.25;;
39970;SDS011;35425;51.142;17.178;2022-07-23T03:17:37;2.10;;;2.00;;
39970;SDS011;35425;51.142;17.178;2022-07-23T03:20:04;2.17;;;2.08;;
39970;SDS011;35425;51.142;17.178;2022-07-23T03:22:31;2.15;;;2.05;;
39970;SDS011;35425;51.142;17.178;2022-07-23T03:24:57;2.20;;;2.10;;
39970;SDS011;35425;51.142;17.178;2022-07-23T03:27:25;2.10;;;2.00;;
39970;SDS011;35425;51.142;17.178;2022-07-23T03:29:52;2.28;;;2.17;;
39970;SDS011;35425;51.142;17.178;2022-07-23T03:32:19;2.30;;;2.20;;
39970;SDS011;35425;51.142;17.178;2022-07-23T03:34:45;2.35;;;2.25;;
39970;SDS011;35425;51.142;17.178;2022-07-23T03:37:12;2.40;;;2.20;;
39970;SDS011;35425;51.142;17.178;2022-07-23T03:39:38;1.90;;;1.80;;
39970;SDS011;35425;51.142;17.178;2022-07-23T03:42:05;2.15;;;2.00;;
39970;SDS011;35425;51.142;17.178;2022-07-23T03:44:32;2.10;;;2.00;;
39970;SDS011;35425;51.142;17.178;2022-07-23T03:46:58;1.95;;;1.85;;
39970;SDS011;35425;51.142;17.178;2022-07-23T03:49:25;2.13;;;2.03;;
39970;SDS011;35425;51.142;17.178;2022-07-23T03:51:52;1.98;;;1.88;;
39970;SDS011;35425;51.142;17.178;2022-07-23T03:54:18;2.20;;;2.10;;
39970;SDS011;35425;51.142;17.178;2022-07-23T03:56:45;2.05;;;1.95;;
39970;SDS011;35425;51.142;17.178;2022-07-23T03:59:11;2.28;;;2.08;;
39970;SDS011;35425;51.142;17.178;2022-07-23T04:01:38;2.22;;;2.13;;
39970;SDS011;35425;51.142;17.178;2022-07-23T04:04:04;1.98;;;1.88;;
39970;SDS011;35425;51.142;17.178;2022-07-23T04:06:31;2.17;;;1.92;;
39970;SDS011;35425;51.142;17.178;2022-07-23T04:08:58;2.60;;;2.40;;
39970;SDS011;35425;51.142;17.178;2022-07-23T04:11:25;1.92;;;1.83;;
39970;SDS011;35425;51.142;17.178;2022-07-23T04:13:52;1.83;;;1.73;;
39970;SDS011;35425;51.142;17.178;2022-07-23T04:16:19;2.22;;;2.05;;
39970;SDS011;35425;51.142;17.178;2022-07-23T04:18:45;2.00;;;1.90;;
39970;SDS011;35425;51.142;17.178;2022-07-23T04:21:12;2.08;;;1.98;;
39970;SDS011;35425;51.142;17.178;2022-07-23T04:23:38;2.05;;;1.95;;
39970;SDS011;35425;51.142;17.178;2022-07-23T04:26:05;1.80;;;1.70;;
39970;SDS011;35425;51.142;17.178;2022-07-23T04:28:31;1.92;;;1.83;;
39970;SDS011;35425;51.142;17.178;2022-07-23T04:30:58;2.00;;;1.90;;
39970;SDS011;35425;51.142;17.178;2022-07-23T04:33:24;2.13;;;2.03;;
39970;SDS011;35425;51.142;17.178;2022-07-23T04:35:51;2.08;;;1.98;;
39970;SDS011;35425;51.142;17.178;2022-07-23T04:38:18;2.20;;;2.00;;
39970;SDS011;35425;51.142;17.178;2022-07-23T04:40:45;2.22;;;2.13;;
39970;SDS011;35425;51.142;17.178;2022-07-23T04:43:11;2.10;;;2.00;;
39970;SDS011;35425;51.142;17.178;2022-07-23T04:45:37;2.03;;;1.92;;
39970;SDS011;35425;51.142;17.178;2022-07-23T04:48:05;2.13;;;2.03;;
39970;SDS011;35425;51.142;17.178;2022-07-23T04:50:31;2.00;;;1.90;;
39970;SDS011;35425;51.142;17.178;2022-07-23T04:52:58;2.10;;;2.00;;
39970;SDS011;35425;51.142;17.178;2022-07-23T04:55:24;2.13;;;1.80;;
39970;SDS011;35425;51.142;17.178;2022-07-23T04:57:51;1.90;;;1.80;;
39970;SDS011;35425;51.142;17.178;2022-07-23T05:00:17;1.90;;;1.80;;
39970;SDS011;35425;51.142;17.178;2022-07-23T05:02:44;2.10;;;2.00;;
39970;SDS011;35425;51.142;17.178;2022-07-23T05:05:10;1.92;;;1.83;;
39970;SDS011;35425;51.142;17.178;2022-07-23T05:07:37;2.05;;;1.95;;
39970;SDS011;35425;51.142;17.178;2022-07-23T05:10:03;2.15;;;2.05;;
39970;SDS011;35425;51.142;17.178;2022-07-23T05:12:30;1.65;;;1.55;;
39970;SDS011;35425;51.142;17.178;2022-07-23T05:14:56;2.20;;;2.10;;
39970;SDS011;35425;51.142;17.178;2022-07-23T05:17:23;1.88;;;1.77;;
39970;SDS011;35425;51.142;17.178;2022-07-23T05:19:50;2.10;;;2.00;;
39970;SDS011;35425;51.142;17.178;2022-07-23T05:22:21;2.22;;;2.03;;
39970;SDS011;35425;51.142;17.178;2022-07-23T05:24:48;2.05;;;1.95;;
39970;SDS011;35425;51.142;17.178;2022-07-23T05:27:15;2.10;;;2.00;;
39970;SDS011;35425;51.142;17.178;2022-07-23T05:29:41;2.10;;;2.00;;
39970;SDS011;35425;51.142;17.178;2022-07-23T05:32:07;1.90;;;1.80;;
39970;SDS011;35425;51.142;17.178;2022-07-23T05:34:34;1.88;;;1.77;;
39970;SDS011;35425;51.142;17.178;2022-07-23T05:37:00;1.80;;;1.70;;
39970;SDS011;35425;51.142;17.178;2022-07-23T05:39:27;1.70;;;1.60;;
39970;SDS011;35425;51.142;17.178;2022-07-23T05:41:53;2.05;;;1.95;;
39970;SDS011;35425;51.142;17.178;2022-07-23T05:44:20;2.15;;;2.00;;
39970;SDS011;35425;51.142;17.178;2022-07-23T05:46:47;2.25;;;2.15;;
39970;SDS011;35425;51.142;17.178;2022-07-23T05:49:13;2.03;;;1.92;;
39970;SDS011;35425;51.142;17.178;2022-07-23T05:51:40;2.20;;;2.10;;
39970;SDS011;35425;51.142;17.178;2022-07-23T05:54:06;1.90;;;1.70;;
39970;SDS011;35425;51.142;17.178;2022-07-23T05:56:33;2.10;;;2.00;;
39970;SDS011;35425;51.142;17.178;2022-07-23T05:58:59;1.88;;;1.77;;
39970;SDS011;35425;51.142;17.178;2022-07-23T06:01:26;2.20;;;2.10;;
39970;SDS011;35425;51.142;17.178;2022-07-23T06:03:53;2.00;;;1.90;;
39970;SDS011;35425;51.142;17.178;2022-07-23T06:06:20;2.05;;;1.95;;
39970;SDS011;35425;51.142;17.178;2022-07-23T06:08:47;1.75;;;1.65;;
39970;SDS011;35425;51.142;17.178;2022-07-23T06:11:13;2.13;;;2.03;;
39970;SDS011;35425;51.142;17.178;2022-07-23T06:13:39;2.17;;;2.08;;
39970;SDS011;35425;51.142;17.178;2022-07-23T06:16:06;2.00;;;1.90;;
39970;SDS011;35425;51.142;17.178;2022-07-23T06:18:33;2.10;;;2.00;;
39970;SDS011;35425;51.142;17.178;2022-07-23T06:20:59;1.98;;;1.88;;
39970;SDS011;35425;51.142;17.178;2022-07-23T06:23:26;2.13;;;2.03;;
39970;SDS011;35425;51.142;17.178;2022-07-23T06:25:52;2.42;;;2.22;;
39970;SDS011;35425;51.142;17.178;2022-07-23T06:28:19;2.15;;;2.05;;
39970;SDS011;35425;51.142;17.178;2022-07-23T06:30:45;2.08;;;1.98;;
39970;SDS011;35425;51.142;17.178;2022-07-23T06:33:12;1.95;;;1.75;;
39970;SDS011;35425;51.142;17.178;2022-07-23T06:35:38;2.45;;;2.25;;
39970;SDS011;35425;51.142;17.178;2022-07-23T06:38:05;2.10;;;2.00;;
39970;SDS011;35425;51.142;17.178;2022-07-23T06:40:33;2.00;;;1.90;;
39970;SDS011;35425;51.142;17.178;2022-07-23T06:42:59;1.90;;;1.80;;
39970;SDS011;35425;51.142;17.178;2022-07-23T06:45:26;2.33;;;2.22;;
39970;SDS011;35425;51.142;17.178;2022-07-23T06:47:52;2.10;;;2.00;;
39970;SDS011;35425;51.142;17.178;2022-07-23T06:50:19;2.03;;;1.92;;
39970;SDS011;35425;51.142;17.178;2022-07-23T06:52:45;2.22;;;2.13;;
39970;SDS011;35425;51.142;17.178;2022-07-23T06:55:12;2.15;;;2.05;;
39970;SDS011;35425;51.142;17.178;2022-07-23T06:57:40;1.77;;;1.67;;
39970;SDS011;35425;51.142;17.178;2022-07-23T07:00:06;2.05;;;1.95;;
39970;SDS011;35425;51.142;17.178;2022-07-23T07:02:33;2.00;;;1.90;;
39970;SDS011;35425;51.142;17.178;2022-07-23T07:05:01;2.10;;;2.00;;
39970;SDS011;35425;51.142;17.178;2022-07-23T07:07:31;2.30;;;2.20;;
39970;SDS011;35425;51.142;17.178;2022-07-23T07:09:57;1.90;;;1.80;;
39970;SDS011;35425;51.142;17.178;2022-07-23T07:12:24;1.98;;;1.88;;
39970;SDS011;35425;51.142;17.178;2022-07-23T07:14:50;2.20;;;2.10;;
39970;SDS011;35425;51.142;17.178;2022-07-23T07:17:17;2.03;;;1.92;;
39970;SDS011;35425;51.142;17.178;2022-07-23T07:19:43;2.25;;;2.15;;
39970;SDS011;35425;51.142;17.178;2022-07-23T07:22:10;2.10;;;2.00;;
39970;SDS011;35425;51.142;17.178;2022-07-23T07:24:36;2.17;;;2.08;;
39970;SDS011;35425;51.142;17.178;2022-07-23T07:27:04;2.17;;;2.08;;
39970;SDS011;35425;51.142;17.178;2022-07-23T07:29:30;2.35;;;2.20;;
39970;SDS011;35425;51.142;17.178;2022-07-23T07:31:57;2.55;;;2.38;;
39970;SDS011;35425;51.142;17.178;2022-07-23T07:34:23;1.92;;;1.83;;
39970;SDS011;35425;51.142;17.178;2022-07-23T07:36:50;2.30;;;2.10;;
39970;SDS011;35425;51.142;17.178;2022-07-23T07:39:17;2.17;;;2.00;;
39970;SDS011;35425;51.142;17.178;2022-07-23T07:41:43;2.20;;;2.10;;
39970;SDS011;35425;51.142;17.178;2022-07-23T07:44:10;2.00;;;1.90;;
39970;SDS011;35425;51.142;17.178;2022-07-23T07:46:36;2.10;;;2.00;;
39970;SDS011;35425;51.142;17.178;2022-07-23T07:49:03;2.10;;;1.90;;
39970;SDS011;35425;51.142;17.178;2022-07-23T07:51:31;2.10;;;2.00;;
39970;SDS011;35425;51.142;17.178;2022-07-23T07:53:59;2.10;;;2.00;;
39970;SDS011;35425;51.142;17.178;2022-07-23T07:56:26;2.10;;;2.00;;
39970;SDS011;35425;51.142;17.178;2022-07-23T07:58:53;2.15;;;2.05;;
39970;SDS011;35425;51.142;17.178;2022-07-23T08:01:19;2.38;;;2.28;;
39970;SDS011;35425;51.142;17.178;2022-07-23T08:03:46;2.10;;;2.00;;
39970;SDS011;35425;51.142;17.178;2022-07-23T08:06:13;2.47;;;2.28;;
39970;SDS011;35425;51.142;17.178;2022-07-23T08:08:39;4.03;;;2.47;;
39970;SDS011;35425;51.142;17.178;2022-07-23T08:11:05;2.92;;;2.55;;
39970;SDS011;35425;51.142;17.178;2022-07-23T08:13:32;3.03;;;2.75;;
39970;SDS011;35425;51.142;17.178;2022-07-23T08:15:58;2.30;;;2.20;;
39970;SDS011;35425;51.142;17.178;2022-07-23T08:18:26;2.85;;;2.65;;
39970;SDS011;35425;51.142;17.178;2022-07-23T08:20:53;2.65;;;2.45;;
39970;SDS011;35425;51.142;17.178;2022-07-23T08:23:19;2.90;;;2.60;;
39970;SDS011;35425;51.142;17.178;2022-07-23T08:25:46;2.60;;;2.50;;
39970;SDS011;35425;51.142;17.178;2022-07-23T08:28:13;3.05;;;2.85;;
39970;SDS011;35425;51.142;17.178;2022-07-23T08:30:41;3.05;;;2.85;;
39970;SDS011;35425;51.142;17.178;2022-07-23T08:33:09;3.20;;;3.00;;
39970;SDS011;35425;51.142;17.178;2022-07-23T08:35:59;3.08;;;2.88;;
39970;SDS011;35425;51.142;17.178;2022-07-23T08:38:26;3.85;;;3.55;;
39970;SDS011;35425;51.142;17.178;2022-07-23T08:40:53;4.00;;;3.70;;
39970;SDS011;35425;51.142;17.178;2022-07-23T08:43:21;3.70;;;3.40;;
39970;SDS011;35425;51.142;17.178;2022-07-23T08:45:49;4.30;;;3.90;;
39970;SDS011;35425;51.142;17.178;2022-07-23T08:48:17;3.70;;;3.47;;
39970;SDS011;35425;51.142;17.178;2022-07-23T08:50:46;4.55;;;4.15;;
39970;SDS011;35425;51.142;17.178;2022-07-23T08:53:13;3.63;;;3.42;;
39970;SDS011;35425;51.142;17.178;2022-07-23T08:55:41;4.30;;;4.00;;
39970;SDS011;35425;51.142;17.178;2022-07-23T08:58:09;4.15;;;3.85;;
39970;SDS011;35425;51.142;17.178;2022-07-23T09:00:35;4.00;;;3.70;;
39970;SDS011;35425;51.142;17.178;2022-07-23T09:03:02;3.53;;;3.30;;
39970;SDS011;35425;51.142;17.178;2022-07-23T09:05:28;3.63;;;3.33;;
39970;SDS011;35425;51.142;17.178;2022-07-23T09:10:47;3.65;;;3.35;;
39970;SDS011;35425;51.142;17.178;2022-07-23T09:13:27;4.03;;;3.70;;
39970;SDS011;35425;51.142;17.178;2022-07-23T09:15:55;3.63;;;3.33;;
39970;SDS011;35425;51.142;17.178;2022-07-23T09:18:29;4.10;;;3.80;;
39970;SDS011;35425;51.142;17.178;2022-07-23T09:21:11;4.07;;;3.78;;
39970;SDS011;35425;51.142;17.178;2022-07-23T09:23:43;3.60;;;3.40;;
39970;SDS011;35425;51.142;17.178;2022-07-23T09:26:20;4.20;;;3.90;;
39970;SDS011;35425;51.142;17.178;2022-07-23T09:31:20;3.78;;;3.47;;
39970;SDS011;35425;51.142;17.178;2022-07-23T09:33:46;3.30;;;3.10;;
39970;SDS011;35425;51.142;17.178;2022-07-23T09:36:13;3.17;;;2.97;;
39970;SDS011;35425;51.142;17.178;2022-07-23T09:38:47;3.45;;;3.25;;
39970;SDS011;35425;51.142;17.178;2022-07-23T09:41:14;3.38;;;3.17;;
39970;SDS011;35425;51.142;17.178;2022-07-23T09:43:40;3.03;;;2.83;;
39970;SDS011;35425;51.142;17.178;2022-07-23T09:46:26;3.00;;;2.80;;
39970;SDS011;35425;51.142;17.178;2022-07-23T09:48:53;3.10;;;2.90;;
39970;SDS011;35425;51.142;17.178;2022-07-23T09:51:22;3.30;;;2.97;;
39970;SDS011;35425;51.142;17.178;2022-07-23T09:53:59;3.13;;;2.92;;
39970;SDS011;35425;51.142;17.178;2022-07-23T09:56:27;3.08;;;2.88;;
39970;SDS011;35425;51.142;17.178;2022-07-23T09:58:54;2.50;;;2.40;;
39970;SDS011;35425;51.142;17.178;2022-07-23T10:01:50;3.10;;;2.90;;
39970;SDS011;35425;51.142;17.178;2022-07-23T10:04:17;3.05;;;2.85;;
39970;SDS011;35425;51.142;17.178;2022-07-23T10:06:44;3.20;;;3.00;;
39970;SDS011;35425;51.142;17.178;2022-07-23T10:09:12;3.63;;;3.33;;
39970;SDS011;35425;51.142;17.178;2022-07-23T10:11:38;3.25;;;3.05;;
39970;SDS011;35425;51.142;17.178;2022-07-23T10:17:33;3.83;;;3.53;;
39970;SDS011;35425;51.142;17.178;2022-07-23T10:20:00;4.25;;;3.90;;
39970;SDS011;35425;51.142;17.178;2022-07-23T10:22:28;4.20;;;3.90;;
39970;SDS011;35425;51.142;17.178;2022-07-23T10:24:59;4.20;;;3.90;;
39970;SDS011;35425;51.142;17.178;2022-07-23T10:35:12;4.90;;;4.50;;
39970;SDS011;35425;51.142;17.178;2022-07-23T10:37:43;4.82;;;4.43;;
39970;SDS011;35425;51.142;17.178;2022-07-23T10:40:15;4.70;;;4.40;;
39970;SDS011;35425;51.142;17.178;2022-07-23T10:42:46;4.70;;;4.30;;
39970;SDS011;35425;51.142;17.178;2022-07-23T10:47:49;4.80;;;4.40;;
39970;SDS011;35425;51.142;17.178;2022-07-23T10:50:18;4.75;;;4.40;;
39970;SDS011;35425;51.142;17.178;2022-07-23T10:57:56;4.88;;;4.50;;
39970;SDS011;35425;51.142;17.178;2022-07-23T11:00:23;4.70;;;4.22;;
39970;SDS011;35425;51.142;17.178;2022-07-23T11:02:51;4.68;;;4.38;;
39970;SDS011;35425;51.142;17.178;2022-07-23T11:05:19;4.80;;;4.50;;
39970;SDS011;35425;51.142;17.178;2022-07-23T11:24:06;4.38;;;4.07;;
39970;SDS011;35425;51.142;17.178;2022-07-23T11:31:59;4.78;;;4.38;;
39970;SDS011;35425;51.142;17.178;2022-07-23T11:34:32;4.43;;;4.13;;
39970;SDS011;35425;51.142;17.178;2022-07-23T11:37:00;4.20;;;3.90;;
39970;SDS011;35425;51.142;17.178;2022-07-23T11:39:29;4.40;;;4.10;;
39970;SDS011;35425;51.142;17.178;2022-07-23T11:41:56;3.90;;;3.67;;
39970;SDS011;35425;51.142;17.178;2022-07-23T11:46:59;4.45;;;4.10;;
39970;SDS011;35425;51.142;17.178;2022-07-23T11:49:26;4.10;;;3.80;;
39970;SDS011;35425;51.142;17.178;2022-07-23T11:54:32;4.18;;;3.80;;
39970;SDS011;35425;51.142;17.178;2022-07-23T11:57:05;3.97;;;3.67;;
39970;SDS011;35425;51.142;17.178;2022-07-23T11:59:32;3.55;;;3.35;;
39970;SDS011;35425;51.142;17.178;2022-07-23T12:02:00;3.50;;;3.30;;
39970;SDS011;35425;51.142;17.178;2022-07-23T12:04:50;3.90;;;3.67;;
39970;SDS011;35425;51.142;17.178;2022-07-23T12:07:23;4.05;;;3.75;;
39970;SDS011;35425;51.142;17.178;2022-07-23T12:09:50;3.42;;;3.13;;
39970;SDS011;35425;51.142;17.178;2022-07-23T12:12:17;3.55;;;3.35;;
39970;SDS011;35425;51.142;17.178;2022-07-23T12:14:51;3.30;;;3.10;;
39970;SDS011;35425;51.142;17.178;2022-07-23T12:17:18;3.50;;;3.20;;
39970;SDS011;35425;51.142;17.178;2022-07-23T12:19:44;3.00;;;2.80;;
39970;SDS011;35425;51.142;17.178;2022-07-23T12:22:11;3.85;;;3.42;;
39970;SDS011;35425;51.142;17.178;2022-07-23T12:24:57;3.67;;;3.47;;
39970;SDS011;35425;51.142;17.178;2022-07-23T12:27:24;3.25;;;3.05;;
39970;SDS011;35425;51.142;17.178;2022-07-23T12:29:51;3.00;;;2.80;;
39970;SDS011;35425;51.142;17.178;2022-07-23T12:32:25;3.03;;;2.83;;
39970;SDS011;35425;51.142;17.178;2022-07-23T12:35:03;3.28;;;3.08;;
39970;SDS011;35425;51.142;17.178;2022-07-23T12:37:31;3.40;;;3.20;;
39970;SDS011;35425;51.142;17.178;2022-07-23T12:39:58;3.33;;;3.13;;
39970;SDS011;35425;51.142;17.178;2022-07-23T12:42:25;2.85;;;2.65;;
39970;SDS011;35425;51.142;17.178;2022-07-23T12:45:07;3.10;;;2.90;;
39970;SDS011;35425;51.142;17.178;2022-07-23T12:50:37;3.17;;;2.97;;
39970;SDS011;35425;51.142;17.178;2022-07-23T12:53:05;3.40;;;3.20;;
39970;SDS011;35425;51.142;17.178;2022-07-23T12:55:38;3.53;;;3.33;;
39970;SDS011;35425;51.142;17.178;2022-07-23T12:58:25;3.00;;;2.80;;
39970;SDS011;35425;51.142;17.178;2022-07-23T13:01:04;3.22;;;3.03;;
39970;SDS011;35425;51.142;17.178;2022-07-23T13:03:38;3.20;;;3.00;;
39970;SDS011;35425;51.142;17.178;2022-07-23T13:06:06;3.00;;;2.80;;
39970;SDS011;35425;51.142;17.178;2022-07-23T13:08:33;3.40;;;3.20;;
39970;SDS011;35425;51.142;17.178;2022-07-23T13:11:00;3.08;;;2.83;;
39970;SDS011;35425;51.142;17.178;2022-07-23T13:13:29;3.03;;;2.83;;
39970;SDS011;35425;51.142;17.178;2022-07-23T13:15:57;3.08;;;2.88;;
39970;SDS011;35425;51.142;17.178;2022-07-23T13:18:24;3.00;;;2.80;;
39970;SDS011;35425;51.142;17.178;2022-07-23T13:20:51;2.65;;;2.55;;
39970;SDS011;35425;51.142;17.178;2022-07-23T13:23:18;3.00;;;2.80;;
39970;SDS011;35425;51.142;17.178;2022-07-23T13:25:45;2.90;;;2.70;;
39970;SDS011;35425;51.142;17.178;2022-07-23T13:28:12;3.05;;;2.85;;
39970;SDS011;35425;51.142;17.178;2022-07-23T13:30:39;3.00;;;2.80;;
39970;SDS011;35425;51.142;17.178;2022-07-23T13:33:06;2.75;;;2.55;;
39970;SDS011;35425;51.142;17.178;2022-07-23T13:35:34;3.03;;;2.83;;
39970;SDS011;35425;51.142;17.178;2022-07-23T13:38:00;2.80;;;2.60;;
39970;SDS011;35425;51.142;17.178;2022-07-23T13:40:27;2.72;;;2.55;;
39970;SDS011;35425;51.142;17.178;2022-07-23T13:42:54;2.75;;;2.55;;
39970;SDS011;35425;51.142;17.178;2022-07-23T13:45:20;2.92;;;2.72;;
39970;SDS011;35425;51.142;17.178;2022-07-23T13:47:47;3.08;;;2.88;;
39970;SDS011;35425;51.142;17.178;2022-07-23T13:50:13;2.90;;;2.70;;
39970;SDS011;35425;51.142;17.178;2022-07-23T13:52:46;2.60;;;2.40;;
39970;SDS011;35425;51.142;17.178;2022-07-23T13:55:12;2.38;;;2.22;;
39970;SDS011;35425;51.142;17.178;2022-07-23T13:57:41;2.92;;;2.72;;
39970;SDS011;35425;51.142;17.178;2022-07-23T14:00:09;3.10;;;2.90;;
39970;SDS011;35425;51.142;17.178;2022-07-23T14:02:57;2.22;;;2.13;;
39970;SDS011;35425;51.142;17.178;2022-07-23T14:05:24;3.15;;;2.95;;
39970;SDS011;35425;51.142;17.178;2022-07-23T14:07:51;2.63;;;2.53;;
39970;SDS011;35425;51.142;17.178;2022-07-23T14:10:18;2.72;;;2.63;;
39970;SDS011;35425;51.142;17.178;2022-07-23T14:12:49;2.72;;;2.53;;
39970;SDS011;35425;51.142;17.178;2022-07-23T14:15:16;2.65;;;2.45;;
39970;SDS011;35425;51.142;17.178;2022-07-23T14:17:44;2.88;;;2.67;;
39970;SDS011;35425;51.142;17.178;2022-07-23T14:20:12;2.80;;;2.60;;
39970;SDS011;35425;51.142;17.178;2022-07-23T14:22:39;2.55;;;2.40;;
39970;SDS011;35425;51.142;17.178;2022-07-23T14:25:06;2.65;;;2.45;;
39970;SDS011;35425;51.142;17.178;2022-07-23T14:27:34;2.58;;;2.42;;
39970;SDS011;35425;51.142;17.178;2022-07-23T14:30:01;2.88;;;2.67;;
39970;SDS011;35425;51.142;17.178;2022-07-23T14:32:29;2.90;;;2.70;;
39970;SDS011;35425;51.142;17.178;2022-07-23T14:34:56;2.40;;;2.30;;
39970;SDS011;35425;51.142;17.178;2022-07-23T14:37:24;3.08;;;2.88;;
39970;SDS011;35425;51.142;17.178;2022-07-23T14:39:51;2.97;;;2.67;;
39970;SDS011;35425;51.142;17.178;2022-07-23T14:42:18;2.50;;;2.40;;
39970;SDS011;35425;51.142;17.178;2022-07-23T14:44:45;2.85;;;2.65;;
39970;SDS011;35425;51.142;17.178;2022-07-23T14:47:12;2.80;;;2.60;;
39970;SDS011;35425;51.142;17.178;2022-07-23T14:49:46;2.80;;;2.60;;
39970;SDS011;35425;51.142;17.178;2022-07-23T14:52:13;2.83;;;2.63;;
39970;SDS011;35425;51.142;17.178;2022-07-23T14:54:41;2.80;;;2.60;;
39970;SDS011;35425;51.142;17.178;2022-07-23T14:57:08;2.95;;;2.75;;
39970;SDS011;35425;51.142;17.178;2022-07-23T14:59:36;2.80;;;2.70;;
39970;SDS011;35425;51.142;17.178;2022-07-23T15:02:02;2.70;;;2.60;;
39970;SDS011;35425;51.142;17.178;2022-07-23T15:04:29;2.85;;;2.65;;
39970;SDS011;35425;51.142;17.178;2022-07-23T15:07:03;2.50;;;2.40;;
39970;SDS011;35425;51.142;17.178;2022-07-23T15:09:30;3.00;;;2.80;;
39970;SDS011;35425;51.142;17.178;2022-07-23T15:11:57;3.30;;;3.10;;
39970;SDS011;35425;51.142;17.178;2022-07-23T15:14:23;3.10;;;2.90;;
39970;SDS011;35425;51.142;17.178;2022-07-23T15:16:56;2.95;;;2.75;;
39970;SDS011;35425;51.142;17.178;2022-07-23T15:19:23;2.90;;;2.70;;
39970;SDS011;35425;51.142;17.178;2022-07-23T15:21:49;3.15;;;2.95;;
39970;SDS011;35425;51.142;17.178;2022-07-23T15:24:16;2.97;;;2.78;;
39970;SDS011;35425;51.142;17.178;2022-07-23T15:26:43;2.80;;;2.60;;
39970;SDS011;35425;51.142;17.178;2022-07-23T15:29:09;3.10;;;2.90;;
39970;SDS011;35425;51.142;17.178;2022-07-23T15:31:35;2.90;;;2.70;;
39970;SDS011;35425;51.142;17.178;2022-07-23T15:34:02;2.70;;;2.50;;